createdAt,value
2022-10-05T00:09:59.440Z,57.24
2022-10-05T00:20:06.548Z,57.39
2022-10-05T00:30:13.441Z,57.67
2022-10-05T00:40:20.461Z,57.95
2022-10-05T00:50:27.437Z,57.86
2022-10-05T01:00:34.106Z,57.81
2022-10-05T01:10:41.311Z,57.83
2022-10-05T01:20:48.009Z,58.02
2022-10-05T01:30:54.355Z,57.98
2022-10-05T01:41:01.093Z,58.15
2022-10-05T01:51:07.916Z,58.12
2022-10-05T02:01:14.774Z,58.12
2022-10-05T02:11:21.361Z,58.10
2022-10-05T02:21:28.227Z,58.39
2022-10-05T02:31:35.223Z,58.54
2022-10-05T02:41:41.853Z,58.48
2022-10-05T02:51:48.833Z,58.47
2022-10-05T03:01:55.941Z,58.50
2022-10-05T03:12:03.012Z,58.53
2022-10-05T03:22:09.252Z,58.42
2022-10-05T03:32:15.995Z,58.34
2022-10-05T03:42:22.793Z,58.47
2022-10-05T03:52:29.943Z,58.55
2022-10-05T04:02:36.889Z,58.65
2022-10-05T04:12:44.298Z,58.60
2022-10-05T04:22:51.084Z,58.58
2022-10-05T04:32:58.358Z,58.58
2022-10-05T04:43:05.837Z,58.71
2022-10-05T04:53:12.810Z,58.65
2022-10-05T05:03:19.994Z,58.57
2022-10-05T05:13:26.570Z,58.58
2022-10-05T05:23:33.780Z,58.46
2022-10-05T05:33:40.384Z,58.87
2022-10-05T05:43:47.338Z,58.73
2022-10-05T05:53:54.472Z,58.88
2022-10-05T06:04:01.859Z,58.96
2022-10-05T06:14:08.951Z,57.87
2022-10-05T06:24:15.941Z,59.00
2022-10-05T06:34:23.371Z,59.26
2022-10-05T06:44:30.160Z,58.76
2022-10-05T06:54:36.953Z,58.55
2022-10-05T07:04:43.877Z,59.05
2022-10-05T07:14:50.908Z,58.44
2022-10-05T07:24:57.995Z,58.06
2022-10-05T07:35:04.694Z,57.95
2022-10-05T07:45:11.448Z,57.80
2022-10-05T07:55:18.401Z,57.34
2022-10-05T08:05:25.086Z,53.79
2022-10-05T08:15:31.819Z,52.24
2022-10-05T08:25:38.748Z,51.89
2022-10-05T08:35:45.838Z,51.46
2022-10-05T08:45:52.979Z,51.27
2022-10-05T08:56:00.120Z,50.91
2022-10-05T09:06:06.841Z,51.26
2022-10-05T09:16:14.209Z,51.02
2022-10-05T09:26:20.633Z,51.74
2022-10-05T09:36:27.674Z,51.88
2022-10-05T09:46:35.931Z,51.89
2022-10-05T09:56:42.362Z,51.32
2022-10-05T10:06:49.000Z,52.32
2022-10-05T10:16:56.171Z,51.11
2022-10-05T10:27:02.826Z,52.46
2022-10-05T10:37:09.210Z,53.13
2022-10-05T10:47:15.752Z,53.95
2022-10-05T10:57:22.094Z,54.08
2022-10-05T11:07:28.472Z,53.06
2022-10-05T11:17:34.615Z,54.54
2022-10-05T11:27:41.748Z,55.50
2022-10-05T11:37:47.822Z,54.78
2022-10-05T11:47:54.704Z,55.30
2022-10-05T11:58:00.888Z,55.02
2022-10-05T12:08:07.455Z,55.55
2022-10-05T12:18:14.419Z,55.61
2022-10-05T12:28:21.230Z,55.52
2022-10-05T12:38:28.041Z,55.40
2022-10-05T12:48:34.662Z,55.37
2022-10-05T12:58:41.096Z,55.52
2022-10-05T13:08:48.260Z,55.48
2022-10-05T13:18:54.782Z,55.86
2022-10-05T13:29:01.581Z,55.94
2022-10-05T13:39:08.494Z,55.97
2022-10-05T13:49:15.232Z,56.06
2022-10-05T13:59:22.266Z,56.22
2022-10-05T14:09:28.918Z,56.19
2022-10-05T14:19:35.929Z,55.92
2022-10-05T14:29:41.995Z,56.27
2022-10-05T14:39:48.778Z,56.09
2022-10-05T14:49:56.012Z,55.94
2022-10-05T15:00:02.843Z,55.76
2022-10-05T15:10:09.335Z,55.90
2022-10-05T15:20:15.949Z,56.01
2022-10-05T15:30:22.925Z,56.02
2022-10-05T15:40:29.758Z,56.13
2022-10-05T15:50:36.126Z,55.85
2022-10-05T16:00:42.506Z,55.81
2022-10-05T16:10:49.350Z,55.86
2022-10-05T16:20:55.938Z,56.02
2022-10-05T16:31:02.525Z,55.94
2022-10-05T16:41:09.693Z,55.90
2022-10-05T16:51:16.575Z,55.92
2022-10-05T17:01:23.471Z,56.10
2022-10-05T17:11:30.284Z,55.98
2022-10-05T17:21:37.253Z,56.01
2022-10-05T17:31:43.847Z,55.83
2022-10-05T17:41:50.944Z,56.12
2022-10-05T17:51:57.739Z,56.14
2022-10-05T18:02:04.381Z,55.90
2022-10-05T18:12:11.408Z,55.83
2022-10-05T18:22:18.400Z,55.96
2022-10-05T18:32:25.472Z,55.89
2022-10-05T18:42:32.441Z,55.80
2022-10-05T18:52:39.531Z,56.16
2022-10-05T19:02:46.795Z,55.71
2022-10-05T19:12:53.697Z,55.83
2022-10-05T19:23:00.650Z,55.80
2022-10-05T19:33:07.783Z,55.99
2022-10-05T19:43:14.772Z,55.71
2022-10-05T19:53:21.909Z,55.67
2022-10-05T20:03:28.946Z,55.74
2022-10-05T20:13:35.637Z,55.79
2022-10-05T20:23:41.869Z,56.06
2022-10-05T20:33:48.934Z,56.14
2022-10-05T20:43:56.019Z,56.22
2022-10-05T20:54:02.948Z,56.23
2022-10-05T21:04:09.710Z,56.43
2022-10-05T21:14:16.907Z,56.54
2022-10-05T21:24:23.768Z,56.09
2022-10-05T21:34:30.410Z,56.25
2022-10-05T21:44:37.493Z,56.15
2022-10-05T21:54:44.440Z,56.17
2022-10-05T22:04:51.299Z,56.41
2022-10-05T22:14:57.981Z,56.43
2022-10-05T22:25:04.685Z,56.60
2022-10-05T22:35:12.066Z,57.23
2022-10-05T22:45:18.631Z,56.68
2022-10-05T22:55:25.938Z,56.71
2022-10-05T23:05:32.848Z,56.70
2022-10-05T23:15:39.842Z,56.64
2022-10-05T23:25:46.734Z,56.88
2022-10-05T23:35:54.149Z,56.31
2022-10-05T23:46:00.844Z,56.97
2022-10-05T23:56:07.476Z,57.14
